Time;durP1;ratioP1;P1;durP2;ratioP2;P2;SDS_P1;SDS_P2;PMS_P1;PMS_P2;Temp;Humidity;BMP_temperature;BMP_pressure;BME280_temperature;BME280_humidity;BME280_pressure;Samples;Min_cycle;Max_cycle;Signal;HPM_P1;HPM_P2
2022/07/11 00:01:17;;;;;;;3.50;0.60;;;16.50;96.60;;;;;;5075696;28;20502;-78
2022/07/11 00:03:43;;;;;;;5.15;0.80;;;16.50;96.00;;;;;;5075021;28;20089;-78
2022/07/11 00:06:09;;;;;;;1.65;0.82;;;16.50;95.30;;;;;;5075212;28;20451;-78
2022/07/11 00:08:35;;;;;;;4.22;1.33;;;16.50;95.70;;;;;;5075058;28;20079;-78
2022/07/11 00:11:00;;;;;;;1.98;0.68;;;16.50;94.40;;;;;;5075859;28;20020;-78
2022/07/11 00:13:26;;;;;;;4.28;1.27;;;16.50;93.30;;;;;;5075026;28;20032;-78
2022/07/11 00:15:52;;;;;;;3.22;1.70;;;16.40;95.30;;;;;;5074215;28;20190;-78
2022/07/11 00:18:18;;;;;;;7.18;1.30;;;16.30;97.80;;;;;;5074459;28;20025;-78
2022/07/11 00:20:44;;;;;;;7.60;1.33;;;16.20;99.90;;;;;;5073997;28;20082;-79
2022/07/11 00:23:10;;;;;;;10.30;1.25;;;16.10;99.90;;;;;;5075566;28;20039;-78
2022/07/11 00:25:35;;;;;;;5.68;1.50;;;16.00;99.90;;;;;;5073455;28;20066;-79
2022/07/11 00:28:01;;;;;;;7.20;1.55;;;15.90;99.90;;;;;;5072826;28;20483;-77
2022/07/11 00:30:27;;;;;;;4.03;0.95;;;15.80;99.90;;;;;;5073389;28;20398;-77
2022/07/11 00:32:53;;;;;;;5.55;1.50;;;15.70;99.90;;;;;;5073830;28;20115;-78
2022/07/11 00:35:18;;;;;;;2.80;1.30;;;15.60;99.90;;;;;;5074007;28;20060;-78
2022/07/11 00:37:44;;;;;;;3.00;1.45;;;15.60;99.90;;;;;;5073742;28;20024;-77
2022/07/11 00:40:10;;;;;;;3.35;1.35;;;15.60;99.90;;;;;;5073819;28;20387;-77
2022/07/11 00:42:36;;;;;;;1.73;1.13;;;15.60;99.90;;;;;;5073798;28;20105;-78
2022/07/11 00:45:02;;;;;;;4.10;3.53;;;15.50;99.90;;;;;;5074113;28;20051;-77
2022/07/11 00:47:28;;;;;;;1.92;0.95;;;15.50;99.90;;;;;;5074138;28;20119;-76
2022/07/11 00:49:55;;;;;;;1.88;1.05;;;15.40;99.90;;;;;;5073805;28;20439;-77
2022/07/11 00:52:20;;;;;;;3.25;0.90;;;15.40;99.90;;;;;;5073693;28;20043;-78
2022/07/11 00:54:47;;;;;;;5.15;1.02;;;15.30;99.90;;;;;;5073691;28;20107;-77
2022/07/11 00:57:13;;;;;;;1.02;0.90;;;15.40;99.90;;;;;;5073631;28;20064;-78
2022/07/11 00:59:39;;;;;;;2.08;0.80;;;15.40;99.90;;;;;;5072704;28;20029;-78
2022/07/11 01:02:05;;;;;;;3.17;0.80;;;15.50;99.90;;;;;;5073835;28;20090;-78
2022/07/11 01:04:31;;;;;;;4.57;1.23;;;15.60;99.90;;;;;;5073817;28;20032;-77
2022/07/11 01:06:57;;;;;;;4.25;1.40;;;15.60;99.90;;;;;;5072479;28;20024;-77
2022/07/11 01:09:22;;;;;;;1.95;1.20;;;15.60;99.90;;;;;;5073793;28;20036;-77
2022/07/11 01:11:48;;;;;;;2.05;1.38;;;15.50;99.90;;;;;;5073421;28;20040;-76
2022/07/11 01:14:14;;;;;;;2.60;1.30;;;15.50;99.90;;;;;;5073497;28;20040;-77
2022/07/11 01:16:40;;;;;;;8.13;1.02;;;15.40;99.90;;;;;;5072344;28;20447;-77
2022/07/11 01:19:06;;;;;;;8.60;1.85;;;15.30;99.90;;;;;;5072978;28;20031;-78
2022/07/11 01:21:38;;;;;;;2.10;1.20;;;15.20;99.90;;;;;;5073589;28;20136;-78
2022/07/11 01:24:06;;;;;;;2.03;1.27;;;15.20;99.90;;;;;;5073564;28;20779;-77
2022/07/11 01:26:34;;;;;;;3.20;1.10;;;15.20;99.90;;;;;;5072871;28;20016;-77
2022/07/11 01:29:11;;;;;;;1.90;1.25;;;15.20;99.90;;;;;;5073467;28;20106;-77
2022/07/11 01:31:41;;;;;;;2.17;1.13;;;15.20;99.90;;;;;;5073069;28;20036;-77
2022/07/11 01:34:08;;;;;;;2.17;1.20;;;15.20;99.90;;;;;;5072918;28;20499;-78
2022/07/11 01:36:33;;;;;;;4.43;1.13;;;15.20;99.90;;;;;;5073537;28;20031;-77
2022/07/11 01:38:59;;;;;;;1.83;1.30;;;15.10;99.90;;;;;;5072655;28;20028;-76
2022/07/11 01:41:25;;;;;;;4.70;1.70;;;15.10;99.90;;;;;;5072887;28;20063;-77
2022/07/11 01:43:52;;;;;;;4.10;1.58;;;15.00;99.90;;;;;;5071612;28;20028;-78
2022/07/11 01:46:19;;;;;;;6.18;1.50;;;15.10;99.90;;;;;;5072499;28;20108;-77
2022/07/11 01:48:45;;;;;;;2.63;1.38;;;15.10;99.90;;;;;;5073139;28;20017;-78
2022/07/11 01:51:11;;;;;;;2.17;1.30;;;15.10;99.90;;;;;;5073071;28;20471;-77
2022/07/11 01:53:37;;;;;;;4.47;1.83;;;15.10;99.90;;;;;;5072567;28;20483;-77
2022/07/11 01:56:03;;;;;;;4.80;1.45;;;15.00;99.90;;;;;;5073058;28;20040;-77
2022/07/11 01:58:31;;;;;;;1.80;1.20;;;14.90;99.90;;;;;;5072673;28;20108;-79
2022/07/11 02:00:58;;;;;;;3.03;1.20;;;14.80;99.90;;;;;;5072881;28;20032;-77
2022/07/11 02:03:24;;;;;;;2.88;1.30;;;14.80;99.90;;;;;;5072627;28;20070;-80
2022/07/11 02:05:50;;;;;;;3.50;1.20;;;14.80;99.90;;;;;;5072644;28;20033;-80
2022/07/11 02:08:17;;;;;;;3.05;1.20;;;14.70;99.90;;;;;;5072561;28;20032;-79
2022/07/11 02:10:51;;;;;;;2.50;1.50;;;14.70;99.90;;;;;;5071588;28;20064;-80
2022/07/11 02:13:20;;;;;;;2.65;1.17;;;14.70;99.90;;;;;;5071542;28;20123;-78
2022/07/11 02:15:47;;;;;;;2.75;1.23;;;14.60;99.90;;;;;;5072542;28;20020;-80
2022/07/11 02:18:14;;;;;;;2.30;0.88;;;14.60;99.90;;;;;;5072851;28;20028;-78
2022/07/11 02:20:41;;;;;;;5.20;1.33;;;14.50;99.90;;;;;;5072712;28;20031;-78
2022/07/11 02:23:08;;;;;;;2.40;1.13;;;14.50;99.90;;;;;;5071200;28;20040;-77
2022/07/11 02:25:37;;;;;;;4.85;1.35;;;14.40;99.90;;;;;;5072768;28;20528;-77
2022/07/11 02:28:03;;;;;;;7.28;1.42;;;14.40;99.90;;;;;;5071808;28;20507;-78
2022/07/11 02:30:29;;;;;;;5.20;1.27;;;14.40;99.90;;;;;;5072350;28;20577;-78
2022/07/11 02:32:55;;;;;;;4.53;1.73;;;14.50;99.90;;;;;;5071324;28;20120;-80
2022/07/11 02:35:21;;;;;;;1.90;1.17;;;14.40;99.90;;;;;;5072222;28;20451;-78
2022/07/11 02:37:48;;;;;;;9.80;1.38;;;14.40;99.90;;;;;;5071387;28;20464;-78
2022/07/11 02:40:15;;;;;;;4.07;1.58;;;14.40;99.90;;;;;;5070947;28;20024;-77
2022/07/11 02:42:40;;;;;;;4.80;1.40;;;14.40;99.90;;;;;;5072909;28;20494;-77
2022/07/11 02:45:08;;;;;;;2.97;1.35;;;14.40;99.90;;;;;;5071342;28;20025;-78
2022/07/11 02:47:36;;;;;;;4.47;1.80;;;14.30;99.90;;;;;;5072550;28;20097;-77
2022/07/11 02:50:02;;;;;;;2.88;1.42;;;14.30;99.90;;;;;;5072212;28;20113;-77
2022/07/11 02:52:28;;;;;;;6.00;1.40;;;14.30;99.90;;;;;;5076274;28;20036;-77
2022/07/11 02:54:54;;;;;;;9.80;1.50;;;14.30;99.90;;;;;;5076085;28;20027;-79
2022/07/11 02:57:19;;;;;;;6.38;1.70;;;14.30;99.90;;;;;;5075660;28;20028;-78
2022/07/11 02:59:45;;;;;;;3.22;1.40;;;14.30;99.90;;;;;;5076482;28;20029;-77
2022/07/11 03:02:11;;;;;;;5.13;1.67;;;14.30;99.90;;;;;;5074907;28;20042;-78
2022/07/11 03:04:36;;;;;;;4.07;1.60;;;14.30;99.90;;;;;;5075796;28;20107;-77
2022/07/11 03:07:02;;;;;;;6.05;1.67;;;14.20;99.90;;;;;;5076190;28;20036;-77
2022/07/11 03:09:28;;;;;;;4.50;1.85;;;14.20;99.90;;;;;;5074654;28;20024;-77
2022/07/11 03:11:54;;;;;;;3.47;1.50;;;14.10;99.90;;;;;;5075794;28;20024;-77
2022/07/11 03:14:20;;;;;;;2.97;1.50;;;14.10;99.90;;;;;;5075869;28;20040;-79
2022/07/11 03:16:46;;;;;;;3.33;1.50;;;14.00;99.90;;;;;;5075914;28;20059;-79
2022/07/11 03:19:12;;;;;;;6.85;1.90;;;14.00;99.90;;;;;;5075636;28;20066;-78
2022/07/11 03:21:38;;;;;;;8.57;2.05;;;14.00;99.90;;;;;;5075804;28;20036;-78
2022/07/11 03:24:04;;;;;;;4.43;1.88;;;13.90;99.90;;;;;;5074164;28;20029;-77
2022/07/11 03:26:30;;;;;;;6.05;1.77;;;14.00;99.90;;;;;;5075923;28;20073;-78
2022/07/11 03:28:55;;;;;;;3.60;1.67;;;14.10;99.90;;;;;;5075941;28;20048;-78
2022/07/11 03:31:21;;;;;;;4.43;2.10;;;14.10;99.90;;;;;;5075305;28;20029;-77
2022/07/11 03:33:47;;;;;;;2.75;1.77;;;14.00;99.90;;;;;;5075371;28;20040;-77
2022/07/11 03:36:13;;;;;;;3.30;1.98;;;14.00;99.90;;;;;;5075558;28;20032;-78
2022/07/11 03:38:39;;;;;;;4.05;1.55;;;14.00;99.90;;;;;;5075136;28;20028;-77
2022/07/11 03:41:04;;;;;;;3.08;1.77;;;14.00;99.90;;;;;;5075525;28;20025;-78
2022/07/11 03:43:31;;;;;;;4.50;3.58;;;13.90;99.90;;;;;;5075082;28;20489;-79
2022/07/11 03:45:57;;;;;;;4.55;2.70;;;13.80;99.90;;;;;;5075137;28;20032;-78
2022/07/11 03:48:23;;;;;;;4.38;1.50;;;13.80;99.90;;;;;;5075299;28;20399;-78
2022/07/11 03:50:49;;;;;;;3.15;1.55;;;13.90;99.90;;;;;;5075286;28;20028;-77
2022/07/11 03:53:15;;;;;;;3.15;1.50;;;14.00;99.90;;;;;;5074626;28;20115;-78
2022/07/11 03:55:41;;;;;;;4.13;1.40;;;14.00;99.90;;;;;;5075233;28;20420;-78
2022/07/11 03:58:07;;;;;;;2.47;1.23;;;14.10;99.90;;;;;;5073932;28;20031;-77
2022/07/11 04:00:33;;;;;;;2.70;1.48;;;14.10;99.90;;;;;;5074352;28;20067;-77
2022/07/11 04:02:59;;;;;;;2.60;1.25;;;14.10;99.90;;;;;;5074818;28;20107;-78
2022/07/11 04:05:26;;;;;;;5.18;1.50;;;14.20;99.90;;;;;;5074808;28;20432;-78
2022/07/11 04:07:52;;;;;;;2.72;1.20;;;14.20;99.90;;;;;;5074597;28;20023;-77
2022/07/11 04:10:18;;;;;;;3.10;1.58;;;14.20;99.90;;;;;;5074747;28;20107;-77
2022/07/11 04:12:44;;;;;;;4.63;1.65;;;14.20;99.90;;;;;;5074468;28;20466;-79
2022/07/11 04:15:11;;;;;;;2.25;1.30;;;14.20;99.90;;;;;;5074921;28;20021;-81
2022/07/11 04:17:37;;;;;;;6.10;1.73;;;14.20;99.90;;;;;;5073843;28;20067;-77
2022/07/11 04:20:04;;;;;;;5.03;1.70;;;14.30;99.90;;;;;;5075151;28;20033;-78
2022/07/11 04:22:30;;;;;;;3.83;1.40;;;14.30;99.90;;;;;;5075537;28;20467;-77
2022/07/11 04:24:56;;;;;;;3.78;1.45;;;14.40;99.90;;;;;;5075567;28;20099;-77
2022/07/11 04:27:22;;;;;;;3.20;1.52;;;14.40;99.90;;;;;;5074989;28;20024;-77
2022/07/11 04:29:48;;;;;;;3.92;1.35;;;14.50;99.90;;;;;;5075704;28;20062;-77
2022/07/11 04:32:13;;;;;;;2.55;1.23;;;14.60;99.90;;;;;;5075368;28;20066;-78
2022/07/11 04:34:39;;;;;;;2.08;1.30;;;14.60;99.90;;;;;;5075200;28;20024;-78
2022/07/11 04:37:05;;;;;;;7.03;1.60;;;14.80;99.90;;;;;;5075364;28;20031;-77
2022/07/11 04:39:34;;;;;;;1.92;1.20;;;14.90;99.90;;;;;;5075072;28;20020;-77
2022/07/11 04:42:00;;;;;;;3.10;1.20;;;15.00;99.90;;;;;;5074923;28;20021;-77
2022/07/11 04:44:27;;;;;;;6.28;1.20;;;15.10;99.90;;;;;;5074639;28;20028;-77
2022/07/11 04:46:53;;;;;;;3.35;1.30;;;15.20;99.90;;;;;;5073886;28;20032;-77
2022/07/11 04:49:19;;;;;;;6.75;1.55;;;15.30;99.90;;;;;;5074842;28;20024;-78
2022/07/11 04:51:45;;;;;;;5.28;1.33;;;15.30;99.90;;;;;;5074866;28;20023;-77
2022/07/11 04:54:11;;;;;;;7.03;1.60;;;15.40;99.90;;;;;;5075004;28;20536;-77
2022/07/11 04:56:37;;;;;;;3.83;1.13;;;15.50;99.90;;;;;;5073849;28;20029;-77
2022/07/11 04:59:04;;;;;;;1.92;1.10;;;15.60;99.90;;;;;;5073909;28;20024;-77
2022/07/11 05:01:30;;;;;;;3.35;1.10;;;15.70;99.90;;;;;;5073203;28;20064;-78
2022/07/11 05:03:56;;;;;;;4.30;1.50;;;15.80;99.90;;;;;;5072894;28;20029;-78
2022/07/11 05:06:22;;;;;;;3.92;0.90;;;15.90;99.90;;;;;;5074709;28;20028;-77
2022/07/11 05:08:48;;;;;;;4.55;1.10;;;16.00;99.90;;;;;;5073443;28;20463;-77
2022/07/11 05:11:14;;;;;;;5.00;1.38;;;16.10;99.90;;;;;;5074353;28;20028;-79
2022/07/11 05:13:40;;;;;;;2.40;1.20;;;16.20;99.90;;;;;;5074036;28;20426;-77
2022/07/11 05:16:06;;;;;;;3.30;1.42;;;16.30;99.90;;;;;;5073193;28;20052;-78
2022/07/11 05:18:32;;;;;;;3.00;1.10;;;16.40;99.90;;;;;;5074824;28;20494;-77
2022/07/11 05:20:58;;;;;;;2.30;1.40;;;16.40;99.90;;;;;;5073080;28;20055;-77
2022/07/11 05:23:24;;;;;;;2.28;1.00;;;16.50;99.90;;;;;;5072771;28;20033;-78
2022/07/11 05:25:50;;;;;;;2.65;1.52;;;16.60;99.90;;;;;;5074427;28;20474;-78
2022/07/11 05:28:15;;;;;;;1.95;1.08;;;16.70;99.90;;;;;;5074254;28;20497;-77
2022/07/11 05:30:41;;;;;;;3.22;1.00;;;16.80;99.10;;;;;;5074144;28;20418;-79
2022/07/11 05:33:07;;;;;;;9.35;1.33;;;16.90;96.70;;;;;;5074393;28;20033;-78
2022/07/11 05:35:33;;;;;;;3.33;1.10;;;17.00;95.90;;;;;;5073740;28;20050;-79
2022/07/11 05:37:59;;;;;;;6.80;1.05;;;17.10;97.30;;;;;;5073700;28;20031;-78
2022/07/11 05:40:25;;;;;;;3.22;0.98;;;17.20;95.00;;;;;;5074464;28;20040;-79
2022/07/11 05:42:50;;;;;;;1.88;0.82;;;17.30;94.40;;;;;;5072795;28;20028;-77
2022/07/11 05:45:16;;;;;;;3.08;1.30;;;17.30;92.10;;;;;;5073629;28;20024;-78
2022/07/11 05:47:42;;;;;;;3.47;1.88;;;17.40;91.40;;;;;;5073805;28;20024;-78
2022/07/11 05:50:09;;;;;;;2.17;1.90;;;17.50;92.60;;;;;;5073652;28;20029;-82
2022/07/11 05:52:35;;;;;;;1.83;1.33;;;17.60;91.00;;;;;;5073796;28;20032;-79
2022/07/11 05:55:01;;;;;;;2.83;1.42;;;17.70;92.00;;;;;;5073770;28;20074;-79
2022/07/11 05:57:26;;;;;;;4.30;1.70;;;17.90;91.30;;;;;;5072566;28;20024;-79
2022/07/11 05:59:53;;;;;;;2.90;1.80;;;18.00;90.10;;;;;;5073660;28;20028;-79
2022/07/11 06:02:18;;;;;;;4.43;2.13;;;18.00;89.40;;;;;;5072604;28;20029;-79
2022/07/11 06:04:44;;;;;;;3.45;2.10;;;18.20;89.30;;;;;;5073892;28;20440;-79
2022/07/11 06:07:10;;;;;;;8.38;1.92;;;18.30;84.90;;;;;;5073698;28;20035;-78
2022/07/11 06:09:36;;;;;;;7.00;3.42;;;18.30;83.20;;;;;;5074085;28;20107;-77
2022/07/11 06:12:03;;;;;;;5.22;1.77;;;18.40;81.60;;;;;;5073371;28;20064;-78
2022/07/11 06:14:29;;;;;;;4.22;1.50;;;18.50;80.60;;;;;;5071504;28;20379;-78
2022/07/11 06:16:54;;;;;;;3.45;1.60;;;18.60;80.30;;;;;;5073759;28;20100;-77
2022/07/11 06:19:20;;;;;;;3.42;1.02;;;18.70;78.50;;;;;;5073447;28;20036;-77
2022/07/11 06:21:46;;;;;;;8.50;1.30;;;18.70;76.30;;;;;;5073694;28;20029;-78
2022/07/11 06:24:12;;;;;;;4.22;1.23;;;18.80;74.80;;;;;;5072116;28;20387;-77
2022/07/11 06:26:38;;;;;;;3.50;1.10;;;18.90;75.00;;;;;;5076124;28;20081;-79
2022/07/11 06:29:04;;;;;;;3.50;1.30;;;19.00;75.20;;;;;;5078063;28;20044;-77
2022/07/11 06:31:29;;;;;;;2.10;0.93;;;19.10;73.50;;;;;;5077526;28;20039;-78
2022/07/11 06:33:57;;;;;;;2.28;0.95;;;19.10;71.60;;;;;;5077343;28;20119;-79
2022/07/11 06:36:26;;;;;;;2.83;1.25;;;19.20;69.20;;;;;;5077632;28;20028;-78
2022/07/11 06:38:52;;;;;;;2.33;1.30;;;19.20;69.20;;;;;;5077362;28;20103;-78
2022/07/11 06:41:18;;;;;;;3.13;1.70;;;19.30;70.50;;;;;;5076949;28;20040;-76
2022/07/11 06:43:47;;;;;;;4.55;1.65;;;19.40;67.70;;;;;;5077810;28;20025;-77
2022/07/11 06:46:14;;;;;;;3.30;1.50;;;19.40;66.70;;;;;;5076187;28;20463;-76
2022/07/11 06:48:40;;;;;;;3.80;1.40;;;19.50;68.30;;;;;;5077224;28;20025;-77
2022/07/11 06:51:07;;;;;;;2.67;1.40;;;19.50;66.30;;;;;;5077375;28;20530;-79
2022/07/11 06:53:33;;;;;;;3.28;1.60;;;19.60;68.20;;;;;;5076046;28;20039;-79
2022/07/11 06:55:59;;;;;;;3.85;1.60;;;19.70;66.40;;;;;;5075685;28;20032;-78
2022/07/11 06:58:33;;;;;;;1.73;1.30;;;19.80;65.50;;;;;;5076908;28;20032;-78
2022/07/11 07:01:01;;;;;;;3.67;1.40;;;19.80;65.50;;;;;;5075657;28;20035;-78
2022/07/11 07:03:27;;;;;;;5.07;1.88;;;20.00;64.40;;;;;;5077109;28;20021;-78
2022/07/11 07:05:55;;;;;;;4.15;1.75;;;20.20;63.70;;;;;;5075857;28;20033;-78
2022/07/11 07:08:24;;;;;;;3.22;1.60;;;20.30;64.30;;;;;;5076986;28;20020;-78
2022/07/11 07:10:51;;;;;;;3.90;1.70;;;20.40;63.30;;;;;;5077024;28;20486;-77
2022/07/11 07:13:18;;;;;;;2.22;1.30;;;20.50;62.20;;;;;;5077007;28;20467;-77
2022/07/11 07:15:43;;;;;;;3.88;1.45;;;20.50;60.80;;;;;;5076989;28;20474;-77
2022/07/11 07:18:09;;;;;;;5.20;1.55;;;20.50;60.00;;;;;;5076884;28;20078;-77
2022/07/11 07:20:35;;;;;;;2.08;1.60;;;20.50;61.60;;;;;;5076801;28;20024;-77
2022/07/11 07:23:00;;;;;;;2.55;1.55;;;20.70;61.50;;;;;;5076520;28;20024;-77
2022/07/11 07:25:26;;;;;;;4.47;1.80;;;20.80;58.00;;;;;;5075235;28;20024;-78
2022/07/11 07:27:52;;;;;;;3.38;1.90;;;20.80;58.10;;;;;;5076665;28;20056;-78
2022/07/11 07:30:18;;;;;;;5.00;1.83;;;20.90;59.60;;;;;;5076064;28;20034;-77
2022/07/11 07:32:44;;;;;;;3.65;1.60;;;21.00;58.80;;;;;;5076230;28;20032;-78
2022/07/11 07:35:09;;;;;;;3.88;2.42;;;21.10;58.40;;;;;;5076113;28;20096;-78
2022/07/11 07:37:35;;;;;;;4.45;1.80;;;21.20;58.50;;;;;;5076018;28;20055;-78
2022/07/11 07:40:01;;;;;;;3.80;3.45;;;21.20;58.60;;;;;;5076485;28;20066;-76
2022/07/11 07:42:27;;;;;;;4.38;3.28;;;21.40;59.20;;;;;;5075125;28;20024;-77
2022/07/11 07:44:53;;;;;;;5.03;4.10;;;21.40;57.40;;;;;;5076154;28;20047;-78
2022/07/11 07:47:20;;;;;;;4.30;3.20;;;21.50;56.70;;;;;;5076002;28;20020;-78
2022/07/11 07:49:46;;;;;;;4.53;2.35;;;21.40;57.10;;;;;;5076013;28;20089;-78
2022/07/11 07:52:12;;;;;;;2.03;1.88;;;21.50;56.50;;;;;;5075633;28;20405;-79
2022/07/11 07:54:38;;;;;;;5.25;4.80;;;21.60;58.20;;;;;;5076184;28;20024;-77
2022/07/11 07:57:04;;;;;;;3.20;2.50;;;21.80;57.30;;;;;;5074528;28;20036;-77
2022/07/11 07:59:30;;;;;;;6.25;2.30;;;21.50;56.40;;;;;;5076339;28;20028;-78
2022/07/11 08:01:56;;;;;;;4.97;3.28;;;21.20;56.20;;;;;;5075999;28;20025;-78
2022/07/11 08:04:22;;;;;;;3.58;2.88;;;21.40;57.70;;;;;;5075729;28;20582;-78
2022/07/11 08:06:48;;;;;;;6.32;2.40;;;21.50;56.10;;;;;;5075991;28;20052;-77
2022/07/11 08:09:14;;;;;;;4.82;1.70;;;21.40;54.50;;;;;;5075920;28;20060;-78
2022/07/11 08:11:40;;;;;;;7.05;2.03;;;21.10;54.90;;;;;;5075603;28;20036;-78
2022/07/11 08:14:09;;;;;;;4.28;2.00;;;21.00;55.50;;;;;;5075885;28;20043;-77
2022/07/11 08:16:35;;;;;;;4.65;2.00;;;20.90;56.60;;;;;;5076073;28;20060;-77
2022/07/11 08:19:04;;;;;;;4.30;2.03;;;21.00;55.00;;;;;;5074199;28;20021;-77
2022/07/11 08:21:31;;;;;;;3.78;2.38;;;21.10;55.20;;;;;;5075705;28;20025;-77
2022/07/11 08:23:57;;;;;;;2.20;0.65;;;21.50;56.30;;;;;;5075740;28;20028;-76
2022/07/11 08:26:24;;;;;;;7.07;3.33;;;21.50;54.70;;;;;;5075290;28;20025;-77
2022/07/11 08:28:51;;;;;;;6.47;5.18;;;21.90;54.60;;;;;;5075055;28;20049;-78
2022/07/11 08:31:17;;;;;;;6.35;4.20;;;22.10;54.30;;;;;;5074859;28;20025;-79
2022/07/11 08:33:43;;;;;;;5.13;3.05;;;22.00;53.50;;;;;;5074428;28;20085;-76
2022/07/11 08:36:09;;;;;;;5.47;3.45;;;22.10;54.10;;;;;;5075139;28;20024;-76
2022/07/11 08:38:34;;;;;;;6.63;4.13;;;22.40;53.40;;;;;;5075020;28;20033;-76
2022/07/11 08:41:02;;;;;;;4.55;3.80;;;22.60;52.50;;;;;;5075003;28;20078;-77
2022/07/11 08:43:29;;;;;;;6.80;4.00;;;22.50;50.60;;;;;;5075379;28;20411;-77
2022/07/11 08:45:55;;;;;;;6.88;3.90;;;22.70;50.10;;;;;;5074951;28;20077;-76
2022/07/11 08:48:22;;;;;;;7.78;4.03;;;22.90;52.70;;;;;;5073979;28;20033;-77
2022/07/11 08:50:50;;;;;;;3.45;1.58;;;22.60;49.60;;;;;;5075238;28;20028;-77
2022/07/11 08:53:16;;;;;;;5.47;2.28;;;22.20;49.80;;;;;;5074686;28;20031;-77
2022/07/11 08:55:42;;;;;;;2.72;1.52;;;21.90;50.50;;;;;;5075291;28;20021;-77
2022/07/11 08:58:09;;;;;;;3.67;3.38;;;22.10;50.90;;;;;;5075024;28;20396;-78
2022/07/11 09:00:36;;;;;;;4.68;3.70;;;22.40;51.30;;;;;;5074608;28;20024;-78
2022/07/11 09:03:03;;;;;;;4.95;4.10;;;22.70;52.20;;;;;;5074569;28;20035;-78
2022/07/11 09:05:32;;;;;;;7.38;4.43;;;23.10;49.40;;;;;;5073533;28;20027;-76
2022/07/11 09:07:58;;;;;;;3.83;1.73;;;23.20;45.10;;;;;;5074446;28;20020;-77
2022/07/11 09:10:24;;;;;;;2.55;2.22;;;22.90;45.80;;;;;;5074709;28;20050;-77
2022/07/11 09:13:05;;;;;;;4.00;3.70;;;23.10;49.20;;;;;;5073324;28;20064;-77
2022/07/11 09:15:32;;;;;;;7.18;5.50;;;;;;;;;;5074004;28;20410;-77
2022/07/11 09:17:58;;;;;;;5.70;3.25;;;23.70;47.50;;;;;;5074600;28;20025;-78
2022/07/11 09:20:23;;;;;;;3.20;2.90;;;23.40;45.40;;;;;;5074317;28;20027;-76
2022/07/11 09:25:42;;;;;;;4.53;2.63;;;23.40;47.40;;;;;;5074220;28;20154;-76
2022/07/11 09:28:08;;;;;;;6.85;6.35;;;23.60;45.90;;;;;;5073701;28;20090;-76
2022/07/11 09:30:39;;;;;;;6.38;5.82;;;23.90;45.10;;;;;;5074302;28;20035;-78
2022/07/11 09:33:10;;;;;;;2.33;2.13;;;24.00;46.10;;;;;;5074104;28;20031;-77
2022/07/11 09:35:45;;;;;;;3.65;1.98;;;24.10;46.20;;;;;;5073903;28;20025;-77
2022/07/11 09:38:16;;;;;;;6.53;4.53;;;24.00;45.00;;;;;;5072604;28;20035;-77
2022/07/11 09:40:47;;;;;;;6.32;4.72;;;23.80;43.30;;;;;;5074583;28;20031;-75
2022/07/11 09:43:14;;;;;;;4.93;4.53;;;24.00;44.90;;;;;;5073815;28;20041;-75
2022/07/11 09:45:41;;;;;;;6.30;5.70;;;24.00;43.70;;;;;;5074109;28;20103;-75
2022/07/11 09:48:12;;;;;;;4.18;3.63;;;24.20;44.80;;;;;;5074081;28;20020;-75
2022/07/11 09:50:39;;;;;;;4.65;4.15;;;23.90;43.60;;;;;;5073775;28;20475;-75
2022/07/11 09:53:08;;;;;;;4.00;3.70;;;23.90;44.20;;;;;;5073664;28;20064;-75
2022/07/11 09:55:39;;;;;;;3.13;2.10;;;23.60;42.40;;;;;;5073973;28;20028;-75
2022/07/11 09:58:06;;;;;;;3.70;3.40;;;23.30;42.80;;;;;;5073095;28;20029;-75
2022/07/11 10:00:33;;;;;;;5.00;4.57;;;;;;;;;;5073674;28;20028;-77
2022/07/11 10:03:00;;;;;;;9.60;4.80;;;24.10;46.00;;;;;;5072189;28;20044;-76
2022/07/11 10:05:26;;;;;;;4.43;4.13;;;24.20;44.20;;;;;;5072421;28;20029;-75
2022/07/11 10:07:52;;;;;;;3.95;3.55;;;23.80;42.80;;;;;;5073991;28;20067;-76
2022/07/11 10:10:18;;;;;;;6.40;5.20;;;23.60;42.60;;;;;;5073512;28;20048;-75
2022/07/11 10:12:46;;;;;;;5.97;5.20;;;23.80;41.50;;;;;;5073733;28;20097;-75
2022/07/11 10:15:15;;;;;;;7.32;5.15;;;24.10;41.90;;;;;;5073535;28;20027;-76
2022/07/11 10:17:53;;;;;;;7.03;1.90;;;24.00;40.40;;;;;;5073420;28;20021;-76
2022/07/11 10:20:34;;;;;;;5.78;3.75;;;23.70;41.90;;;;;;5073687;28;20021;-77
2022/07/11 10:23:06;;;;;;;;;;;23.40;44.00;;;;;;5074233;28;20036;-77
2022/07/11 10:25:54;;;;;;;3.10;2.42;;;23.80;44.40;;;;;;5073429;28;19905;-76
2022/07/11 10:28:39;;;;;;;3.03;2.05;;;23.70;43.10;;;;;;5072276;28;20152;-76
2022/07/11 10:31:21;;;;;;;4.90;1.55;;;23.40;42.90;;;;;;5073044;28;20035;-77
2022/07/11 10:34:21;;;;;;;5.97;4.40;;;23.10;42.80;;;;;;5073328;28;20036;-78
2022/07/11 10:36:47;;;;;;;5.00;3.85;;;23.20;44.70;;;;;;5073492;28;20466;-77
2022/07/11 10:39:17;;;;;;;3.25;2.95;;;23.10;43.00;;;;;;5073006;28;20059;-77
2022/07/11 10:41:44;;;;;;;5.57;4.55;;;23.10;43.60;;;;;;5073277;28;20027;-78
2022/07/11 10:44:11;;;;;;;6.88;6.38;;;23.50;44.50;;;;;;5073265;28;20032;-78
2022/07/11 10:46:37;;;;;;;6.95;6.30;;;24.20;44.10;;;;;;5073129;28;20025;-79
2022/07/11 10:49:03;;;;;;;8.65;7.80;;;;;;;;;;5073901;28;20024;-78
2022/07/11 10:51:37;;;;;;;43.63;20.55;;;;;;;;;;5072020;28;20024;-79
2022/07/11 10:54:14;;;;;;;10.32;8.55;;;;;;;;;;5073122;28;20024;-76
2022/07/11 10:56:59;;;;;;;6.63;6.15;;;;;;;;;;5073384;28;20024;-76
2022/07/11 10:59:24;;;;;;;8.75;4.15;;;24.60;38.10;;;;;;5071582;28;20031;-76
2022/07/11 11:02:12;;;;;;;5.90;3.65;;;24.30;38.70;;;;;;5071655;28;20033;-78
2022/07/11 11:05:01;;;;;;;4.75;2.05;;;23.50;40.40;;;;;;5073574;28;20036;-79
2022/07/11 11:07:31;;;;;;;3.25;2.90;;;23.20;42.90;;;;;;5067274;28;20125;-79
2022/07/11 11:09:57;;;;;;;4.53;2.38;;;23.00;42.40;;;;;;5072016;28;20048;-75
2022/07/11 11:13:09;;;;;;;5.20;3.95;;;23.10;42.90;;;;;;5076513;28;20098;-77
2022/07/11 11:15:54;;;;;;;6.68;4.57;;;24.70;41.00;;;;;;5076867;28;20024;-78
2022/07/11 11:18:23;;;;;;;5.82;5.43;;;;;;;;;;5077239;28;20020;-79
2022/07/11 11:20:58;;;;;;;5.22;4.15;;;;;;;;;;5076607;28;20020;-78
2022/07/11 11:23:25;;;;;;;2.60;2.13;;;;;;;;;;5077438;28;20020;-77
2022/07/11 11:25:51;;;;;;;4.47;4.10;;;24.80;37.00;;;;;;5076884;28;20032;-77
2022/07/11 11:28:21;;;;;;;3.85;3.55;;;24.60;39.70;;;;;;5076293;28;20053;-78
2022/07/11 11:30:54;;;;;;;4.38;3.72;;;24.40;38.60;;;;;;5075447;28;20120;-78
2022/07/11 11:33:20;;;;;;;4.20;3.75;;;24.20;39.20;;;;;;5076486;28;20036;-78
2022/07/11 11:36:05;;;;;;;3.25;2.95;;;24.20;40.20;;;;;;5075023;28;20024;-80
2022/07/11 11:38:38;;;;;;;5.18;4.78;;;24.20;39.00;;;;;;5076862;28;20064;-76
2022/07/11 11:41:08;;;;;;;4.47;4.07;;;24.90;38.20;;;;;;5076648;28;20064;-77
2022/07/11 11:43:35;;;;;;;4.30;3.97;;;25.20;38.70;;;;;;5075118;28;20468;-77
2022/07/11 11:46:04;;;;;;;4.90;4.38;;;25.10;38.60;;;;;;5076546;28;20436;-77
2022/07/11 11:48:37;;;;;;;4.82;4.43;;;25.10;37.90;;;;;;5074796;28;20442;-79
2022/07/11 11:51:13;;;;;;;4.88;4.43;;;;;;;;;;5076274;28;20460;-78
2022/07/11 11:53:41;;;;;;;4.85;4.45;;;;;;;;;;5076624;28;20036;-79
2022/07/11 11:56:13;;;;;;;4.38;3.97;;;;;;;;;;5074596;28;20021;-78
2022/07/11 11:58:41;;;;;;;4.40;4.05;;;25.20;35.90;;;;;;5074854;28;20040;-79
2022/07/11 12:01:07;;;;;;;5.07;3.70;;;25.10;36.50;;;;;;5076187;28;20016;-79
2022/07/11 12:04:15;;;;;;;3.70;3.40;;;25.00;36.40;;;;;;5074934;28;20395;-79
2022/07/11 12:06:43;;;;;;;3.05;2.50;;;24.60;36.20;;;;;;5033260;28;20033;-77
2022/07/11 12:09:11;;;;;;;1.80;1.52;;;24.30;37.10;;;;;;5033177;28;20030;-78
2022/07/11 12:11:38;;;;;;;3.00;0.80;;;24.20;37.20;;;;;;5033120;28;20040;-79
2022/07/11 12:14:07;;;;;;;5.43;2.22;;;23.90;37.40;;;;;;5032309;28;20069;-79
2022/07/11 12:16:48;;;;;;;3.20;1.25;;;23.70;38.20;;;;;;5031854;28;20112;-83
2022/07/11 12:19:21;;;;;;;4.32;2.35;;;23.60;38.00;;;;;;5032108;28;20026;-77
2022/07/11 12:21:49;;;;;;;4.47;4.03;;;23.60;38.00;;;;;;5033023;28;20025;-76
2022/07/11 12:24:23;;;;;;;6.00;3.65;;;23.90;39.20;;;;;;5032927;28;20142;-77
2022/07/11 12:26:50;;;;;;;4.00;3.60;;;24.20;38.30;;;;;;5032594;28;20026;-77
2022/07/11 12:29:19;;;;;;;6.50;3.78;;;;;;;;;;5032501;28;20072;-78
2022/07/11 12:31:53;;;;;;;3.83;2.95;;;25.00;36.60;;;;;;5032914;28;20030;-78
2022/07/11 12:34:23;;;;;;;6.38;2.85;;;24.70;36.30;;;;;;5033182;28;20075;-77
2022/07/11 12:36:49;;;;;;;5.63;2.70;;;24.60;37.20;;;;;;5033226;28;20064;-77
2022/07/11 12:39:23;;;;;;;4.43;3.50;;;;;;;;;;5016329;28;20116;-78
2022/07/11 12:41:50;;;;;;;3.88;3.60;;;;;;;;;;5049254;28;20051;-78
2022/07/11 12:47:07;;;;;;;5.18;4.20;;;;;;;;;;5075249;28;20039;-78
2022/07/11 12:49:33;;;;;;;4.70;4.38;;;;;;;;;;5075500;28;20025;-78
2022/07/11 12:52:02;;;;;;;4.20;3.90;;;;;;;;;;5074088;28;20512;-78
2022/07/11 12:54:33;;;;;;;1.02;0.70;;;;;;;;;;5074622;28;20463;-77
2022/07/11 12:57:01;;;;;;;3.88;3.50;;;;;;;;;;5073327;28;20031;-77
2022/07/11 12:59:28;;;;;;;4.20;3.90;;;;;;;;;;5073234;28;20039;-77
2022/07/11 13:01:59;;;;;;;6.65;4.05;;;;;;;;;;5073328;28;20025;-81
2022/07/11 13:04:29;;;;;;;4.65;3.47;;;;;;;;;;5073405;28;20486;-77